HAZ107 RJTT-ZBAA
Flight info
| Callsign | HAZ107 |
|---|---|
| Flight time | N/A |
| Altitude | 40000 |
| Route | BEKLA Y18 PIGAP Y182 BIDIK Y16 SAPRA Y685 SEL Y697 AGAVO/K0917S1220 A591 IKEKA W4 HCH W200 DOVIV W55 DUMAP DUMAP2G |
| Aircraft | A359/H-SDE2E3GHIJ3J4J5LM1ORWXY/LB1D1 |
Departure
| Time | 2026-04-30 09:06 |
|---|---|
| Airport | Tokyo Haneda International Airport (RJTT) |
Arrival
| Time | N/A |
|---|---|
| Airport | Beijing Capital International Airport (ZBAA) |
| Time | Latitude | Longitude | Altitude | Speed | Heading |
|---|---|---|---|---|---|
| 2026-04-30 08:52 | 35.54584 | 139.77021 | 29 ft | 0 kts | 240° |
| 2026-04-30 08:53 | 35.54585 | 139.77021 | 29 ft | 1 kts | 240° |
| 2026-04-30 08:53 | 35.54596 | 139.77045 | 29 ft | 4 kts | 239° |
| 2026-04-30 08:53 | 35.54609 | 139.77073 | 27 ft | 2 kts | 239° |
| 2026-04-30 08:54 | 35.54621 | 139.77095 | 27 ft | 4 kts | 218° |
| 2026-04-30 08:54 | 35.54637 | 139.77106 | 27 ft | 4 kts | 178° |
| 2026-04-30 08:54 | 35.54660 | 139.77100 | 27 ft | 4 kts | 151° |
| 2026-04-30 08:54 | 35.54682 | 139.77084 | 26 ft | 4 kts | 149° |
| 2026-04-30 08:55 | 35.54702 | 139.77070 | 27 ft | 1 kts | 150° |
| 2026-04-30 08:55 | 35.54703 | 139.77070 | 27 ft | 0 kts | 150° |
| 2026-04-30 08:57 | 35.54702 | 139.77070 | 27 ft | 0 kts | 150° |
| 2026-04-30 08:57 | 35.54690 | 139.77079 | 27 ft | 5 kts | 152° |
| 2026-04-30 08:58 | 35.54647 | 139.77109 | 27 ft | 10 kts | 149° |
| 2026-04-30 08:58 | 35.54570 | 139.77165 | 28 ft | 15 kts | 149° |
| 2026-04-30 08:58 | 35.54463 | 139.77242 | 27 ft | 20 kts | 150° |
| 2026-04-30 08:58 | 35.54361 | 139.77356 | 28 ft | 19 kts | 94° |
| 2026-04-30 08:59 | 35.54412 | 139.77502 | 29 ft | 20 kts | 59° |
| 2026-04-30 08:59 | 35.54486 | 139.77663 | 32 ft | 22 kts | 70° |
| 2026-04-30 08:59 | 35.54452 | 139.77752 | 30 ft | 10 kts | 154° |
| 2026-04-30 08:59 | 35.54376 | 139.77803 | 29 ft | 15 kts | 151° |
| 2026-04-30 09:00 | 35.54267 | 139.77881 | 30 ft | 21 kts | 150° |
| 2026-04-30 09:00 | 35.54128 | 139.77979 | 30 ft | 24 kts | 150° |
| 2026-04-30 09:00 | 35.54070 | 139.78089 | 29 ft | 10 kts | 74° |
| 2026-04-30 09:00 | 35.54106 | 139.78160 | 26 ft | 11 kts | 58° |
| 2026-04-30 09:01 | 35.54147 | 139.78248 | 29 ft | 14 kts | 60° |
| 2026-04-30 09:01 | 35.54206 | 139.78373 | 28 ft | 19 kts | 60° |
| 2026-04-30 09:01 | 35.54277 | 139.78524 | 31 ft | 21 kts | 59° |
| 2026-04-30 09:01 | 35.54352 | 139.78683 | 37 ft | 22 kts | 59° |
| 2026-04-30 09:02 | 35.54511 | 139.79015 | 46 ft | 23 kts | 59° |
| 2026-04-30 09:02 | 35.54601 | 139.79203 | 39 ft | 28 kts | 60° |
| 2026-04-30 09:02 | 35.54705 | 139.79428 | 34 ft | 31 kts | 60° |
| 2026-04-30 09:03 | 35.54767 | 139.79557 | 32 ft | 10 kts | 59° |
| 2026-04-30 09:03 | 35.54793 | 139.79647 | 31 ft | 11 kts | 101° |
| 2026-04-30 09:03 | 35.54738 | 139.79716 | 30 ft | 12 kts | 151° |
| 2026-04-30 09:03 | 35.54653 | 139.79773 | 31 ft | 15 kts | 150° |
| 2026-04-30 09:04 | 35.54589 | 139.79858 | 30 ft | 12 kts | 90° |
| 2026-04-30 09:04 | 35.54613 | 139.79950 | 32 ft | 11 kts | 60° |
| 2026-04-30 09:04 | 35.54661 | 139.79995 | 34 ft | 8 kts | 16° |
| 2026-04-30 09:04 | 35.54710 | 139.79988 | 33 ft | 7 kts | 333° |
| 2026-04-30 09:05 | 35.54762 | 139.79951 | 35 ft | 10 kts | 329° |
| 2026-04-30 09:05 | 35.54886 | 139.79862 | 35 ft | 48 kts | 329° |
| 2026-04-30 09:05 | 35.55382 | 139.79513 | 34 ft | 114 kts | 330° |
| 2026-04-30 09:05 | 35.56225 | 139.78911 | 134 ft | 158 kts | 332° |
| 2026-04-30 09:06 | 35.57145 | 139.78257 | 950 ft | 148 kts | 333° |
| 2026-04-30 09:06 | 35.58163 | 139.78068 | 1450 ft | 154 kts | 21° |
| 2026-04-30 09:06 | 35.58939 | 139.78900 | 2113 ft | 149 kts | 57° |
| 2026-04-30 09:06 | 35.59455 | 139.80009 | 2728 ft | 150 kts | 64° |
| 2026-04-30 09:07 | 35.59955 | 139.81157 | 3238 ft | 158 kts | 65° |
| 2026-04-30 09:07 | 35.60511 | 139.82423 | 3530 ft | 180 kts | 66° |
| 2026-04-30 09:07 | 35.60999 | 139.83929 | 3792 ft | 201 kts | 82° |
| 2026-04-30 09:07 | 35.61094 | 139.85743 | 4038 ft | 226 kts | 92° |
| 2026-04-30 09:08 | 35.61059 | 139.87768 | 4528 ft | 243 kts | 93° |
| 2026-04-30 09:08 | 35.61015 | 139.89882 | 5221 ft | 252 kts | 93° |
| 2026-04-30 09:08 | 35.61002 | 139.92078 | 5895 ft | 263 kts | 90° |
| 2026-04-30 09:08 | 35.61487 | 139.94305 | 6523 ft | 281 kts | 62° |
| 2026-04-30 09:09 | 35.62882 | 139.96016 | 7235 ft | 291 kts | 29° |
| 2026-04-30 09:09 | 35.64821 | 139.96672 | 8103 ft | 292 kts | 3° |
| 2026-04-30 09:09 | 35.66856 | 139.96735 | 9036 ft | 294 kts | 359° |
| 2026-04-30 09:09 | 35.68915 | 139.96719 | 9942 ft | 298 kts | 355° |
| 2026-04-30 09:10 | 35.70946 | 139.96236 | 10728 ft | 298 kts | 336° |
| 2026-04-30 09:10 | 35.72684 | 139.94929 | 11648 ft | 291 kts | 314° |
| 2026-04-30 09:10 | 35.73880 | 139.92969 | 12635 ft | 284 kts | 294° |
| 2026-04-30 09:10 | 35.74441 | 139.90704 | 13596 ft | 280 kts | 279° |
| 2026-04-30 09:11 | 35.74732 | 139.88337 | 14454 ft | 280 kts | 277° |
| 2026-04-30 09:11 | 35.74993 | 139.85916 | 15149 ft | 286 kts | 277° |
| 2026-04-30 09:11 | 35.75266 | 139.83451 | 15511 ft | 303 kts | 277° |
| 2026-04-30 09:11 | 35.75566 | 139.80811 | 15843 ft | 320 kts | 277° |
| 2026-04-30 09:12 | 35.75888 | 139.78034 | 16163 ft | 336 kts | 277° |
| 2026-04-30 09:12 | 35.76161 | 139.75114 | 16493 ft | 351 kts | 274° |
| 2026-04-30 09:12 | 35.76344 | 139.72067 | 16891 ft | 362 kts | 274° |
| 2026-04-30 09:12 | 35.76508 | 139.68945 | 17435 ft | 368 kts | 273° |
| 2026-04-30 09:13 | 35.76657 | 139.65779 | 18017 ft | 373 kts | 272° |
| 2026-04-30 09:13 | 35.76797 | 139.62580 | 18625 ft | 376 kts | 272° |
| 2026-04-30 09:13 | 35.76934 | 139.59353 | 19222 ft | 378 kts | 272° |
| 2026-04-30 09:13 | 35.77069 | 139.56118 | 19900 ft | 377 kts | 272° |
| 2026-04-30 09:14 | 35.77203 | 139.52899 | 20587 ft | 377 kts | 272° |
| 2026-04-30 09:14 | 35.77337 | 139.49678 | 21255 ft | 377 kts | 272° |
| 2026-04-30 09:14 | 35.77472 | 139.46461 | 21975 ft | 377 kts | 272° |
| 2026-04-30 09:14 | 35.77606 | 139.43236 | 22635 ft | 377 kts | 272° |
| 2026-04-30 09:15 | 35.77740 | 139.40004 | 23272 ft | 378 kts | 272° |
| 2026-04-30 09:15 | 35.77874 | 139.36773 | 23903 ft | 379 kts | 272° |
| 2026-04-30 09:15 | 35.78007 | 139.33522 | 24408 ft | 382 kts | 272° |
| 2026-04-30 09:15 | 35.78140 | 139.30250 | 24838 ft | 386 kts | 271° |
| 2026-04-30 09:16 | 35.78274 | 139.26921 | 25280 ft | 390 kts | 271° |
| 2026-04-30 09:16 | 35.78408 | 139.23575 | 25739 ft | 394 kts | 271° |
| 2026-04-30 09:16 | 35.78498 | 139.21332 | 26064 ft | 396 kts | 271° |
| 2026-04-30 09:16 | 35.78632 | 139.17934 | 26549 ft | 399 kts | 270° |
| 2026-04-30 09:17 | 35.78766 | 139.14503 | 27023 ft | 403 kts | 270° |
| 2026-04-30 09:17 | 35.78900 | 139.11049 | 27494 ft | 406 kts | 270° |
| 2026-04-30 09:17 | 35.79038 | 139.07574 | 27941 ft | 408 kts | 270° |
| 2026-04-30 09:17 | 35.79159 | 139.04520 | 28344 ft | 410 kts | 269° |
| 2026-04-30 09:18 | 35.79295 | 139.00997 | 28822 ft | 413 kts | 269° |
| 2026-04-30 09:18 | 35.79428 | 138.97455 | 29281 ft | 416 kts | 269° |
| 2026-04-30 09:18 | 35.79559 | 138.93870 | 29726 ft | 420 kts | 269° |
| 2026-04-30 09:18 | 35.79690 | 138.90275 | 30256 ft | 421 kts | 269° |
| 2026-04-30 09:19 | 35.79823 | 138.86672 | 30693 ft | 422 kts | 268° |
| 2026-04-30 09:19 | 35.79949 | 138.83056 | 31088 ft | 423 kts | 268° |
| 2026-04-30 09:19 | 35.80081 | 138.79446 | 31532 ft | 422 kts | 268° |
| 2026-04-30 09:19 | 35.80215 | 138.75830 | 31956 ft | 422 kts | 268° |
| 2026-04-30 09:20 | 35.80348 | 138.72210 | 32349 ft | 423 kts | 268° |
| 2026-04-30 09:20 | 35.80479 | 138.68584 | 32691 ft | 423 kts | 268° |
| 2026-04-30 09:20 | 35.80609 | 138.64963 | 33205 ft | 420 kts | 268° |
| 2026-04-30 09:20 | 35.80737 | 138.61397 | 33837 ft | 414 kts | 268° |
| 2026-04-30 09:21 | 35.80863 | 138.57871 | 34428 ft | 409 kts | 267° |
| 2026-04-30 09:21 | 35.80983 | 138.54427 | 34836 ft | 407 kts | 267° |
| 2026-04-30 09:21 | 35.81099 | 138.50953 | 35217 ft | 405 kts | 267° |
| 2026-04-30 09:21 | 35.81214 | 138.47494 | 35615 ft | 403 kts | 267° |
| 2026-04-30 09:22 | 35.81328 | 138.44046 | 36064 ft | 400 kts | 267° |
| 2026-04-30 09:22 | 35.81443 | 138.40631 | 36468 ft | 398 kts | 266° |
| 2026-04-30 09:22 | 35.81555 | 138.37233 | 36829 ft | 396 kts | 266° |
| 2026-04-30 09:22 | 35.81666 | 138.33849 | 37184 ft | 395 kts | 266° |
| 2026-04-30 09:23 | 35.81776 | 138.30482 | 37527 ft | 393 kts | 266° |
| 2026-04-30 09:23 | 35.81883 | 138.27117 | 37834 ft | 391 kts | 266° |
| 2026-04-30 09:23 | 35.81989 | 138.23784 | 38077 ft | 390 kts | 266° |
| 2026-04-30 09:23 | 35.82093 | 138.20433 | 38126 ft | 391 kts | 266° |
| 2026-04-30 09:24 | 35.82301 | 138.13756 | 38118 ft | 390 kts | 266° |
| 2026-04-30 09:24 | 35.82403 | 138.10416 | 38250 ft | 390 kts | 266° |
| 2026-04-30 09:24 | 35.82501 | 138.07077 | 38537 ft | 389 kts | 266° |
| 2026-04-30 09:25 | 35.82602 | 138.03759 | 38920 ft | 386 kts | 266° |
| 2026-04-30 09:25 | 35.82703 | 138.00467 | 39173 ft | 384 kts | 266° |
| 2026-04-30 09:25 | 35.82802 | 137.97179 | 39353 ft | 384 kts | 266° |
| 2026-04-30 09:25 | 35.82899 | 137.93879 | 39510 ft | 385 kts | 266° |
| 2026-04-30 09:26 | 35.82995 | 137.90584 | 39648 ft | 384 kts | 266° |
| 2026-04-30 09:26 | 35.83090 | 137.87300 | 39750 ft | 384 kts | 266° |
| 2026-04-30 09:26 | 35.83275 | 137.80711 | 39904 ft | 385 kts | 266° |
| 2026-04-30 09:27 | 35.83363 | 137.77461 | 40056 ft | 385 kts | 266° |
| 2026-04-30 09:27 | 35.83455 | 137.74158 | 40131 ft | 386 kts | 266° |
| 2026-04-30 09:27 | 35.83637 | 137.67568 | 40132 ft | 384 kts | 266° |
| 2026-04-30 09:28 | 35.83814 | 137.60989 | 40130 ft | 384 kts | 266° |
| 2026-04-30 09:28 | 35.83987 | 137.54407 | 40136 ft | 384 kts | 266° |
| 2026-04-30 09:29 | 35.84156 | 137.47817 | 40127 ft | 385 kts | 266° |
| 2026-04-30 09:29 | 35.84322 | 137.41229 | 40128 ft | 385 kts | 266° |
| 2026-04-30 09:30 | 35.84484 | 137.34639 | 40117 ft | 384 kts | 265° |
| 2026-04-30 09:30 | 35.84627 | 137.28064 | 40118 ft | 383 kts | 265° |
| 2026-04-30 09:31 | 35.84784 | 137.21495 | 40123 ft | 383 kts | 266° |
| 2026-04-30 09:31 | 35.84940 | 137.14935 | 40118 ft | 383 kts | 265° |
| 2026-04-30 09:32 | 35.85093 | 137.08377 | 40121 ft | 383 kts | 265° |
| 2026-04-30 09:32 | 35.85243 | 137.01798 | 40113 ft | 384 kts | 266° |
| 2026-04-30 09:33 | 35.85394 | 136.95208 | 40108 ft | 385 kts | 265° |
| 2026-04-30 09:33 | 35.85524 | 136.88620 | 40108 ft | 384 kts | 265° |
| 2026-04-30 09:34 | 35.85649 | 136.82084 | 40103 ft | 384 kts | 265° |
| 2026-04-30 09:34 | 35.85774 | 136.75501 | 40112 ft | 384 kts | 265° |
| 2026-04-30 09:35 | 35.85912 | 136.68914 | 40085 ft | 384 kts | 265° |
| 2026-04-30 09:35 | 35.86062 | 136.62328 | 40093 ft | 384 kts | 265° |
| 2026-04-30 09:36 | 35.86188 | 136.55746 | 40087 ft | 385 kts | 265° |
| 2026-04-30 09:36 | 35.86295 | 136.49158 | 40067 ft | 384 kts | 265° |
| 2026-04-30 09:37 | 35.86388 | 136.42579 | 40064 ft | 384 kts | 264° |
| 2026-04-30 09:37 | 35.86480 | 136.36008 | 40057 ft | 384 kts | 264° |
| 2026-04-30 09:38 | 35.86580 | 136.29429 | 40046 ft | 384 kts | 264° |
| 2026-04-30 09:38 | 35.86683 | 136.22855 | 40045 ft | 384 kts | 264° |
| 2026-04-30 09:39 | 35.86782 | 136.16270 | 40037 ft | 384 kts | 264° |
| 2026-04-30 09:39 | 35.86875 | 136.09684 | 40035 ft | 384 kts | 264° |
| 2026-04-30 09:40 | 35.86965 | 136.03102 | 40030 ft | 384 kts | 264° |
| 2026-04-30 09:40 | 35.87048 | 135.96514 | 40028 ft | 384 kts | 264° |
| 2026-04-30 09:41 | 35.87128 | 135.89929 | 40028 ft | 384 kts | 264° |
| 2026-04-30 09:41 | 35.87208 | 135.83341 | 40028 ft | 384 kts | 264° |
| 2026-04-30 09:42 | 35.87284 | 135.76789 | 40027 ft | 384 kts | 264° |
| 2026-04-30 09:42 | 35.87356 | 135.70202 | 40027 ft | 384 kts | 264° |
| 2026-04-30 09:43 | 35.87424 | 135.63615 | 40023 ft | 384 kts | 264° |
| 2026-04-30 09:43 | 35.87489 | 135.57022 | 40022 ft | 384 kts | 263° |
| 2026-04-30 09:44 | 35.87550 | 135.50431 | 40021 ft | 384 kts | 263° |
| 2026-04-30 09:44 | 35.87608 | 135.43837 | 40018 ft | 384 kts | 263° |
| 2026-04-30 09:45 | 35.87662 | 135.37252 | 40022 ft | 384 kts | 263° |
| 2026-04-30 09:45 | 35.87712 | 135.30664 | 40018 ft | 384 kts | 263° |
| 2026-04-30 09:46 | 35.87759 | 135.24072 | 40017 ft | 384 kts | 263° |
| 2026-04-30 09:46 | 35.87802 | 135.17523 | 40015 ft | 385 kts | 263° |
| 2026-04-30 09:47 | 35.87842 | 135.10933 | 40013 ft | 385 kts | 263° |
| 2026-04-30 09:47 | 35.87878 | 135.04332 | 40012 ft | 385 kts | 263° |
| 2026-04-30 09:48 | 35.87910 | 134.97736 | 40010 ft | 385 kts | 263° |
| 2026-04-30 09:48 | 35.87939 | 134.91138 | 40009 ft | 385 kts | 263° |
| 2026-04-30 09:49 | 35.87965 | 134.84529 | 40005 ft | 385 kts | 263° |
| 2026-04-30 09:49 | 35.87986 | 134.77924 | 40001 ft | 385 kts | 263° |
| 2026-04-30 09:50 | 35.88004 | 134.71312 | 39998 ft | 386 kts | 263° |
| 2026-04-30 09:50 | 35.88019 | 134.64701 | 39998 ft | 386 kts | 263° |
| 2026-04-30 09:51 | 35.88030 | 134.58085 | 39995 ft | 386 kts | 262° |
| 2026-04-30 09:51 | 35.88037 | 134.51475 | 39990 ft | 386 kts | 262° |
| 2026-04-30 09:52 | 35.88040 | 134.44857 | 39989 ft | 386 kts | 262° |
| 2026-04-30 09:52 | 35.88040 | 134.38237 | 39987 ft | 386 kts | 262° |
| 2026-04-30 09:53 | 35.88036 | 134.31612 | 39983 ft | 386 kts | 262° |
| 2026-04-30 09:53 | 35.88029 | 134.24988 | 39982 ft | 387 kts | 262° |
| 2026-04-30 09:54 | 35.88018 | 134.18401 | 39981 ft | 387 kts | 262° |
| 2026-04-30 09:54 | 35.88004 | 134.11768 | 39977 ft | 387 kts | 262° |
| 2026-04-30 09:55 | 35.87986 | 134.05239 | 39979 ft | 387 kts | 262° |
| 2026-04-30 09:55 | 35.87964 | 133.98599 | 39974 ft | 387 kts | 262° |
| 2026-04-30 09:56 | 35.87938 | 133.91963 | 39979 ft | 387 kts | 262° |
| 2026-04-30 09:56 | 35.87909 | 133.85321 | 39972 ft | 387 kts | 262° |
| 2026-04-30 09:57 | 35.87876 | 133.78681 | 39971 ft | 387 kts | 262° |
| 2026-04-30 09:57 | 35.87840 | 133.72044 | 39973 ft | 387 kts | 262° |
| 2026-04-30 09:58 | 35.87800 | 133.65400 | 39971 ft | 387 kts | 262° |
| 2026-04-30 09:58 | 35.87756 | 133.58762 | 39975 ft | 387 kts | 262° |
| 2026-04-30 09:59 | 35.87657 | 133.45468 | 39969 ft | 388 kts | 262° |
| 2026-04-30 10:00 | 35.87573 | 133.35489 | 39968 ft | 388 kts | 262° |
| 2026-04-30 10:01 | 35.87482 | 133.25554 | 39964 ft | 388 kts | 262° |
| 2026-04-30 10:02 | 35.87371 | 133.15580 | 39967 ft | 388 kts | 261° |
| 2026-04-30 10:02 | 35.87272 | 133.08932 | 39966 ft | 388 kts | 261° |
| 2026-04-30 10:03 | 35.87186 | 133.02290 | 39959 ft | 388 kts | 261° |
| 2026-04-30 10:03 | 35.87106 | 132.95635 | 39966 ft | 388 kts | 261° |
| 2026-04-30 10:04 | 35.87024 | 132.88977 | 39960 ft | 388 kts | 261° |
| 2026-04-30 10:04 | 35.86939 | 132.82319 | 39958 ft | 388 kts | 261° |
| 2026-04-30 10:05 | 35.86850 | 132.75663 | 39965 ft | 388 kts | 261° |
| 2026-04-30 10:05 | 35.86757 | 132.69004 | 39958 ft | 388 kts | 261° |
| 2026-04-30 10:06 | 35.86659 | 132.62352 | 39958 ft | 388 kts | 261° |
| 2026-04-30 10:06 | 35.86576 | 132.56823 | 39952 ft | 388 kts | 261° |
| 2026-04-30 10:07 | 35.86472 | 132.50176 | 39955 ft | 388 kts | 261° |
| 2026-04-30 10:07 | 35.86365 | 132.43530 | 39954 ft | 388 kts | 261° |
| 2026-04-30 10:08 | 35.86254 | 132.36886 | 39953 ft | 388 kts | 261° |
| 2026-04-30 10:08 | 35.86140 | 132.30240 | 39953 ft | 387 kts | 261° |
| 2026-04-30 10:09 | 35.86021 | 132.23605 | 39951 ft | 388 kts | 261° |
| 2026-04-30 10:09 | 35.85899 | 132.16960 | 39953 ft | 388 kts | 261° |
| 2026-04-30 10:10 | 35.85773 | 132.10315 | 39954 ft | 388 kts | 261° |
| 2026-04-30 10:10 | 35.85644 | 132.03678 | 39954 ft | 388 kts | 261° |
| 2026-04-30 10:11 | 35.85511 | 131.97038 | 39947 ft | 388 kts | 261° |
| 2026-04-30 10:11 | 35.85375 | 131.90397 | 39952 ft | 388 kts | 261° |
| 2026-04-30 10:12 | 35.85236 | 131.83796 | 39954 ft | 388 kts | 261° |
| 2026-04-30 10:12 | 35.85092 | 131.77154 | 39951 ft | 388 kts | 261° |
| 2026-04-30 10:13 | 35.84944 | 131.70508 | 39949 ft | 388 kts | 261° |
| 2026-04-30 10:13 | 35.84793 | 131.63861 | 39948 ft | 388 kts | 261° |
| 2026-04-30 10:14 | 35.84638 | 131.57218 | 39951 ft | 388 kts | 261° |
| 2026-04-30 10:14 | 35.84399 | 131.47249 | 39945 ft | 388 kts | 261° |
| 2026-04-30 10:15 | 35.84235 | 131.40604 | 39950 ft | 388 kts | 261° |
| 2026-04-30 10:15 | 35.84068 | 131.33963 | 39945 ft | 388 kts | 261° |
| 2026-04-30 10:16 | 35.83896 | 131.27318 | 39946 ft | 388 kts | 261° |
| 2026-04-30 10:17 | 35.83633 | 131.17389 | 39949 ft | 388 kts | 261° |
| 2026-04-30 10:17 | 35.83361 | 131.07422 | 39939 ft | 388 kts | 261° |
| 2026-04-30 10:18 | 35.83175 | 131.00774 | 39945 ft | 388 kts | 261° |
| 2026-04-30 10:19 | 35.82889 | 130.90797 | 39945 ft | 388 kts | 261° |
| 2026-04-30 10:19 | 35.82693 | 130.84140 | 39954 ft | 389 kts | 261° |
| 2026-04-30 10:20 | 35.82494 | 130.77492 | 39950 ft | 389 kts | 261° |
| 2026-04-30 10:20 | 35.83162 | 130.67408 | 39941 ft | 400 kts | 272° |
| 2026-04-30 10:21 | 35.84286 | 130.60670 | 39944 ft | 402 kts | 274° |
| 2026-04-30 10:21 | 35.85470 | 130.53936 | 39947 ft | 402 kts | 274° |